Time;durP1;ratioP1;P1;durP2;ratioP2;P2;SDS_P1;SDS_P2;PMS_P1;PMS_P2;Temp;Humidity;BMP_temperature;BMP_pressure;BME280_temperature;BME280_humidity;BME280_pressure;Samples;Min_cycle;Max_cycle;Signal;HPM_P1;HPM_P2
2023/04/19 00:01:56;;;;;;;6.55;4.40;;;12.70;99.90;;;;;;10053224;28;20048;-70
2023/04/19 00:06:47;;;;;;;10.07;5.32;;;12.70;99.90;;;;;;10056481;28;20606;-69
2023/04/19 00:11:38;;;;;;;9.20;4.25;;;12.60;99.90;;;;;;10072318;28;20139;-67
2023/04/19 00:16:28;;;;;;;11.70;5.05;;;12.60;99.90;;;;;;10066151;28;20025;-66
2023/04/19 00:21:20;;;;;;;9.20;5.28;;;12.60;99.90;;;;;;10075088;28;20049;-62
2023/04/19 00:26:14;;;;;;;8.52;5.60;;;12.50;99.90;;;;;;10056101;28;20053;-64
2023/04/19 00:31:05;;;;;;;7.50;4.90;;;12.50;99.90;;;;;;10047761;28;20037;-62
2023/04/19 00:35:55;;;;;;;10.55;4.78;;;12.40;99.90;;;;;;10056108;28;20492;-60
2023/04/19 00:40:46;;;;;;;8.15;4.85;;;12.40;99.90;;;;;;10056376;28;20032;-63
2023/04/19 00:45:36;;;;;;;10.35;5.28;;;12.30;99.90;;;;;;10055310;28;20092;-64
2023/04/19 00:50:28;;;;;;;10.20;5.35;;;12.30;99.90;;;;;;10055938;28;20021;-63
2023/04/19 00:55:18;;;;;;;8.88;4.78;;;12.30;99.90;;;;;;10055457;28;20048;-64
2023/04/19 01:00:09;;;;;;;8.25;5.45;;;12.20;99.90;;;;;;10056083;28;20028;-65
2023/04/19 01:05:00;;;;;;;10.40;4.97;;;12.20;99.90;;;;;;10054497;28;20131;-62
2023/04/19 01:09:51;;;;;;;9.43;5.45;;;12.20;99.90;;;;;;10055385;28;20109;-62
2023/04/19 01:19:42;;;;;;;9.75;5.20;;;12.10;99.90;;;;;;10894848;22;20136;-66
2023/04/19 01:24:33;;;;;;;12.70;6.22;;;12.20;99.90;;;;;;10025759;28;20457;-59
2023/04/19 01:29:24;;;;;;;9.52;5.63;;;12.10;99.90;;;;;;10020975;28;20470;-60
2023/04/19 01:34:14;;;;;;;8.88;5.22;;;12.10;99.90;;;;;;10020927;28;20549;-61
2023/04/19 01:39:05;;;;;;;12.43;6.30;;;12.10;99.90;;;;;;10020964;28;20029;-62
2023/04/19 01:43:55;;;;;;;11.75;5.65;;;12.10;99.90;;;;;;10021486;28;20523;-61
2023/04/19 01:48:46;;;;;;;12.07;5.78;;;12.00;99.90;;;;;;10020782;28;20037;-62
2023/04/19 01:53:37;;;;;;;9.10;5.22;;;12.00;99.90;;;;;;10018677;28;20046;-64
2023/04/19 01:58:27;;;;;;;11.48;5.70;;;12.00;99.90;;;;;;10017423;28;20082;-60
2023/04/19 02:03:18;;;;;;;12.13;5.78;;;12.00;99.90;;;;;;10027674;28;20041;-62
2023/04/19 02:08:08;;;;;;;11.70;5.90;;;12.00;99.90;;;;;;10027092;28;20018;-60
2023/04/19 02:12:59;;;;;;;11.73;5.75;;;12.00;99.90;;;;;;10027242;28;20054;-62
2023/04/19 02:17:50;;;;;;;8.95;5.45;;;12.00;99.90;;;;;;10026938;28;20419;-69
2023/04/19 02:22:42;;;;;;;12.07;5.93;;;11.90;99.90;;;;;;10018568;28;20395;-63
2023/04/19 02:27:33;;;;;;;9.75;5.55;;;11.90;99.90;;;;;;10026533;28;20042;-60
2023/04/19 02:32:23;;;;;;;9.73;5.50;;;11.90;99.90;;;;;;10026439;28;20061;-63
2023/04/19 02:37:14;;;;;;;8.45;5.50;;;11.80;99.90;;;;;;10008454;28;20400;-62
2023/04/19 02:42:04;;;;;;;11.48;5.25;;;11.90;99.90;;;;;;10031450;28;20030;-61
2023/04/19 02:46:56;;;;;;;11.55;6.30;;;11.80;99.90;;;;;;10026252;28;20033;-61
2023/04/19 02:51:49;;;;;;;9.68;5.53;;;11.80;99.90;;;;;;10017824;28;20035;-60
2023/04/19 02:56:39;;;;;;;10.55;5.68;;;11.80;99.90;;;;;;10019137;28;20030;-61
2023/04/19 03:01:31;;;;;;;10.75;5.97;;;11.70;99.90;;;;;;10017306;28;20030;-63
2023/04/19 03:06:21;;;;;;;11.00;5.97;;;11.70;99.90;;;;;;9999844;28;20021;-61
2023/04/19 03:11:14;;;;;;;10.77;5.72;;;11.70;99.90;;;;;;9997147;28;20402;-65
2023/04/19 03:16:05;;;;;;;11.20;5.80;;;11.70;99.90;;;;;;10019920;28;20491;-68
2023/04/19 03:20:56;;;;;;;10.35;5.72;;;11.70;99.90;;;;;;10021626;28;20042;-71
2023/04/19 03:25:46;;;;;;;10.90;6.60;;;11.60;99.90;;;;;;10025000;28;20394;-71
2023/04/19 03:30:37;;;;;;;9.18;5.82;;;11.60;99.90;;;;;;10024294;28;20391;-62
2023/04/19 03:35:29;;;;;;;9.77;5.47;;;11.60;99.90;;;;;;10024051;28;20128;-67
2023/04/19 03:40:20;;;;;;;11.70;5.75;;;11.50;99.90;;;;;;10022132;28;20121;-64
2023/04/19 03:45:11;;;;;;;11.70;6.05;;;11.60;99.90;;;;;;10023760;28;20125;-63
2023/04/19 03:50:02;;;;;;;9.27;6.03;;;11.60;99.90;;;;;;10023110;28;20022;-69
2023/04/19 03:54:52;;;;;;;9.77;5.18;;;11.50;99.90;;;;;;10015803;28;20038;-64
2023/04/19 03:59:43;;;;;;;9.38;5.45;;;11.50;99.90;;;;;;10024833;28;20109;-65
2023/04/19 04:04:34;;;;;;;9.90;5.97;;;11.50;99.90;;;;;;10010427;28;20026;-70
2023/04/19 04:09:24;;;;;;;10.50;5.75;;;11.50;99.90;;;;;;10022895;28;20021;-67
2023/04/19 04:14:15;;;;;;;11.35;5.45;;;11.50;99.90;;;;;;10023214;28;20048;-63
2023/04/19 04:19:06;;;;;;;15.63;6.88;;;11.50;99.90;;;;;;10022461;28;20047;-68
2023/04/19 04:23:57;;;;;;;9.77;5.80;;;11.50;99.90;;;;;;10022946;28;20028;-61
2023/04/19 04:28:48;;;;;;;10.90;6.22;;;11.40;99.90;;;;;;10022611;28;20014;-66
2023/04/19 04:33:38;;;;;;;10.73;5.75;;;11.40;99.90;;;;;;10022111;28;20041;-61
2023/04/19 04:38:30;;;;;;;12.55;6.55;;;11.30;99.90;;;;;;10004967;28;20471;-61
2023/04/19 04:43:22;;;;;;;10.43;6.32;;;11.30;99.90;;;;;;10023322;28;20041;-62
2023/04/19 04:48:12;;;;;;;10.25;5.40;;;11.20;99.90;;;;;;10018190;28;20522;-63
2023/04/19 04:53:03;;;;;;;8.38;6.00;;;11.20;99.90;;;;;;10022538;28;20038;-62
2023/04/19 04:57:54;;;;;;;9.20;5.50;;;11.30;99.90;;;;;;10022971;28;20392;-62
2023/04/19 05:02:44;;;;;;;13.85;6.75;;;11.30;99.90;;;;;;10017535;28;20088;-60
2023/04/19 05:07:35;;;;;;;13.57;6.63;;;11.30;99.90;;;;;;10007038;28;20495;-60
2023/04/19 05:12:26;;;;;;;12.07;5.75;;;11.20;99.90;;;;;;10013668;28;20118;-60
2023/04/19 05:17:18;;;;;;;11.48;6.25;;;11.20;99.90;;;;;;10015574;28;20120;-61
2023/04/19 05:22:09;;;;;;;10.40;5.28;;;11.30;99.90;;;;;;10016553;28;20505;-67
2023/04/19 05:27:00;;;;;;;15.05;6.22;;;11.30;99.90;;;;;;10018858;28;20026;-60
2023/04/19 05:31:51;;;;;;;9.45;6.10;;;11.30;99.90;;;;;;10024215;28;20017;-63
2023/04/19 05:36:41;;;;;;;11.10;6.40;;;11.40;99.90;;;;;;10033434;28;20430;-71
2023/04/19 05:41:32;;;;;;;9.82;6.30;;;11.50;99.90;;;;;;10015795;28;20037;-61
2023/04/19 05:46:23;;;;;;;9.32;5.72;;;11.50;99.90;;;;;;10035318;28;20021;-63
2023/04/19 05:51:13;;;;;;;10.73;6.07;;;11.60;99.90;;;;;;10027439;28;20115;-59
2023/04/19 05:56:04;;;;;;;10.25;5.45;;;11.60;99.90;;;;;;10026553;28;20030;-62
2023/04/19 06:00:55;;;;;;;12.20;6.93;;;11.70;99.90;;;;;;10028597;28;20030;-64
2023/04/19 06:05:45;;;;;;;11.60;6.25;;;11.80;99.90;;;;;;10029040;28;20025;-61
2023/04/19 06:10:36;;;;;;;12.35;5.95;;;12.00;99.90;;;;;;10025479;28;20479;-63
2023/04/19 06:15:27;;;;;;;9.63;5.03;;;12.00;99.90;;;;;;10028588;28;20140;-62
2023/04/19 06:20:18;;;;;;;10.98;5.95;;;11.90;99.90;;;;;;10026936;28;20050;-61
2023/04/19 06:25:08;;;;;;;7.72;5.38;;;12.00;99.90;;;;;;10028075;28;20041;-61
2023/04/19 06:29:59;;;;;;;10.88;5.55;;;11.90;99.90;;;;;;10026298;28;20474;-66
2023/04/19 06:34:50;;;;;;;9.30;5.90;;;12.00;99.90;;;;;;10027486;28;20511;-60
2023/04/19 06:39:41;;;;;;;10.45;6.75;;;12.10;99.90;;;;;;10006328;28;20431;-65
2023/04/19 06:44:31;;;;;;;10.35;5.65;;;12.10;99.90;;;;;;10024124;28;20523;-64
2023/04/19 06:49:22;;;;;;;9.05;5.53;;;12.30;99.90;;;;;;10005569;28;20028;-61
2023/04/19 06:54:13;;;;;;;8.10;5.68;;;12.30;99.90;;;;;;10013938;28;20128;-61
2023/04/19 06:59:03;;;;;;;11.85;5.93;;;12.30;99.90;;;;;;10018775;28;20037;-62
2023/04/19 07:03:54;;;;;;;11.65;6.10;;;12.30;99.90;;;;;;10022388;28;20029;-61
2023/04/19 07:08:45;;;;;;;9.15;4.63;;;12.30;99.90;;;;;;10021993;28;20145;-61
2023/04/19 07:13:35;;;;;;;9.35;5.63;;;12.40;99.90;;;;;;10018472;28;20048;-64
2023/04/19 07:18:26;;;;;;;12.00;5.30;;;12.50;99.90;;;;;;10008399;28;20403;-63
2023/04/19 07:23:18;;;;;;;9.90;6.15;;;12.60;99.90;;;;;;10001578;28;20131;-61
2023/04/19 07:28:08;;;;;;;10.60;5.95;;;12.50;99.90;;;;;;10024068;28;20026;-61
2023/04/19 07:32:59;;;;;;;10.50;6.38;;;12.60;99.90;;;;;;10024111;28;20380;-67
2023/04/19 07:37:50;;;;;;;11.73;6.03;;;12.70;99.90;;;;;;10024242;28;20381;-61
2023/04/19 07:42:41;;;;;;;8.52;5.38;;;12.80;99.90;;;;;;10023833;28;20036;-64
2023/04/19 07:47:32;;;;;;;9.70;5.68;;;12.90;99.90;;;;;;10024095;28;20076;-65
2023/04/19 07:52:23;;;;;;;8.40;4.97;;;12.90;99.90;;;;;;10017129;28;20041;-69
2023/04/19 07:57:13;;;;;;;9.25;6.03;;;12.80;99.90;;;;;;10023128;28;20078;-65
2023/04/19 08:02:04;;;;;;;12.02;5.32;;;13.00;99.90;;;;;;10023929;28;20056;-70
2023/04/19 08:06:55;;;;;;;10.57;6.22;;;13.10;99.90;;;;;;10011321;28;20022;-65
2023/04/19 08:11:46;;;;;;;8.43;5.65;;;13.20;99.90;;;;;;10023551;28;20022;-69
2023/04/19 08:16:36;;;;;;;9.07;5.75;;;13.20;99.90;;;;;;10008458;28;20483;-66
2023/04/19 08:21:27;;;;;;;9.10;5.90;;;13.40;99.90;;;;;;10014651;28;20049;-66
2023/04/19 08:26:17;;;;;;;9.90;5.68;;;13.60;99.90;;;;;;10023149;28;20038;-67
2023/04/19 08:31:09;;;;;;;9.98;5.65;;;13.70;99.90;;;;;;10021651;28;20057;-66
2023/04/19 08:35:59;;;;;;;9.98;5.80;;;13.80;99.90;;;;;;10004852;28;20431;-65
2023/04/19 08:40:53;;;;;;;9.32;5.80;;;13.90;99.90;;;;;;10019872;28;20022;-61
2023/04/19 08:45:48;;;;;;;8.98;5.68;;;14.10;99.90;;;;;;10021962;28;20495;-65
2023/04/19 08:50:41;;;;;;;10.32;5.00;;;14.00;99.90;;;;;;10021430;28;20424;-62
2023/04/19 08:55:32;;;;;;;11.95;6.28;;;14.10;99.90;;;;;;10014531;28;20372;-62
2023/04/19 09:00:23;;;;;;;9.25;5.50;;;14.10;99.90;;;;;;10021034;28;20022;-63
2023/04/19 09:05:15;;;;;;;7.28;5.22;;;14.30;99.90;;;;;;10021864;28;20025;-63
2023/04/19 09:10:07;;;;;;;9.30;4.95;;;14.40;99.90;;;;;;10023871;28;20049;-61
2023/04/19 09:14:58;;;;;;;8.30;5.68;;;14.50;99.90;;;;;;10024373;28;20041;-61
2023/04/19 09:19:49;;;;;;;7.53;4.68;;;14.40;99.90;;;;;;10029419;28;20046;-62
2023/04/19 09:24:40;;;;;;;7.80;4.43;;;14.60;99.90;;;;;;10029860;28;20034;-62
2023/04/19 09:29:32;;;;;;;9.57;5.85;;;14.90;99.90;;;;;;10029913;28;20395;-62
2023/04/19 09:34:23;;;;;;;7.03;4.32;;;14.90;99.90;;;;;;10012396;28;20069;-61
2023/04/19 09:39:13;;;;;;;8.27;4.25;;;15.30;99.90;;;;;;10029203;28;20554;-59
2023/04/19 09:44:14;;;;;;;7.43;4.40;;;15.10;99.90;;;;;;10026798;28;20064;-60
2023/04/19 09:49:16;;;;;;;8.35;5.47;;;15.10;99.90;;;;;;10030148;28;20040;-64
2023/04/19 09:54:08;;;;;;;8.80;4.63;;;15.20;99.90;;;;;;10019925;28;20053;-68
2023/04/19 09:58:59;;;;;;;8.68;4.78;;;15.50;99.90;;;;;;10029593;28;20033;-64
2023/04/19 10:03:51;;;;;;;7.90;5.00;;;15.50;99.90;;;;;;10028824;28;20041;-61
2023/04/19 10:08:44;;;;;;;9.77;5.13;;;15.50;99.90;;;;;;10031625;28;20026;-61
2023/04/19 10:13:36;;;;;;;7.95;4.95;;;15.70;99.90;;;;;;10028025;28;20447;-61
2023/04/19 10:18:26;;;;;;;9.77;5.18;;;15.70;99.90;;;;;;10026308;28;20073;-61
2023/04/19 10:23:19;;;;;;;7.50;4.45;;;15.90;99.90;;;;;;10024076;28;20042;-60
2023/04/19 10:28:09;;;;;;;7.82;4.45;;;16.10;99.90;;;;;;10019949;28;20022;-62
2023/04/19 10:33:02;;;;;;;7.72;4.78;;;16.00;99.90;;;;;;10020423;28;20431;-60
2023/04/19 10:38:13;;;;;;;5.35;3.45;;;16.00;99.90;;;;;;10008259;28;20041;-63
2023/04/19 10:43:10;;;;;;;6.18;3.85;;;16.00;99.90;;;;;;10016193;28;20037;-66
2023/04/19 10:48:05;;;;;;;8.27;4.32;;;16.20;99.90;;;;;;10018838;28;20049;-61
2023/04/19 10:52:56;;;;;;;6.82;4.20;;;16.30;99.90;;;;;;10022410;28;20038;-61
2023/04/19 10:58:04;;;;;;;6.95;3.67;;;16.30;99.90;;;;;;10006960;28;20488;-61
2023/04/19 11:07:57;;;;;;;7.35;4.97;;;16.30;99.90;;;;;;11246761;22;20093;-63
2023/04/19 11:12:50;;;;;;;7.43;4.60;;;16.40;99.90;;;;;;10061273;28;20516;-70
2023/04/19 11:17:41;;;;;;;6.47;3.50;;;16.40;99.90;;;;;;10047079;28;20029;-66
2023/04/19 11:22:32;;;;;;;6.00;3.78;;;16.40;99.90;;;;;;10053940;28;20231;-68
2023/04/19 11:27:24;;;;;;;5.88;3.58;;;16.60;99.90;;;;;;10051748;28;20089;-68
2023/04/19 11:32:15;;;;;;;4.80;3.63;;;17.00;99.70;;;;;;10065267;28;20041;-70
2023/04/19 11:37:06;;;;;;;5.00;3.30;;;16.80;99.50;;;;;;10063539;28;20518;-70
2023/04/19 11:41:58;;;;;;;5.70;3.80;;;16.80;99.60;;;;;;10063111;28;20042;-71
2023/04/19 11:47:03;;;;;;;7.13;3.63;;;17.00;99.50;;;;;;10056845;28;20571;-68
2023/04/19 11:51:59;;;;;;;4.60;3.67;;;17.10;99.10;;;;;;10058040;28;20108;-62
2023/04/19 11:57:00;;;;;;;5.90;4.28;;;17.20;99.00;;;;;;10062684;28;20048;-71
2023/04/19 12:01:51;;;;;;;6.05;3.35;;;17.10;98.80;;;;;;10055166;28;20496;-65
2023/04/19 12:06:42;;;;;;;4.97;3.13;;;16.90;98.70;;;;;;10051714;28;20046;-65
2023/04/19 12:11:43;;;;;;;5.53;3.78;;;17.00;98.50;;;;;;10052829;28;20225;-67
2023/04/19 12:16:34;;;;;;;5.07;3.55;;;17.20;98.30;;;;;;10066948;28;20111;-65
2023/04/19 12:21:30;;;;;;;7.93;4.10;;;17.40;98.10;;;;;;10060240;28;20104;-63
2023/04/19 12:26:22;;;;;;;6.65;3.88;;;17.10;98.20;;;;;;10053761;28;20117;-61
2023/04/19 12:31:12;;;;;;;7.03;3.75;;;16.80;98.40;;;;;;10058721;28;20109;-67
2023/04/19 12:36:03;;;;;;;9.30;4.00;;;17.00;98.40;;;;;;10058310;28;20480;-72
2023/04/19 12:40:54;;;;;;;4.97;3.88;;;17.80;98.00;;;;;;10057626;28;20100;-64
2023/04/19 12:45:45;;;;;;;6.10;3.40;;;17.10;97.90;;;;;;10048251;28;20120;-64
2023/04/19 12:50:36;;;;;;;4.82;3.10;;;16.90;98.20;;;;;;10065888;28;20372;-65
2023/04/19 12:55:26;;;;;;;5.68;3.17;;;16.90;97.90;;;;;;10057426;28;20052;-65
2023/04/19 13:00:18;;;;;;;4.82;3.33;;;16.90;97.90;;;;;;10059189;28;20036;-73
2023/04/19 13:05:09;;;;;;;6.05;3.25;;;16.90;97.90;;;;;;10060791;28;20469;-69
2023/04/19 13:09:59;;;;;;;5.38;2.88;;;16.80;97.90;;;;;;10050319;28;20042;-69
2023/04/19 13:14:51;;;;;;;3.95;2.95;;;16.60;97.90;;;;;;10049701;28;20042;-71
2023/04/19 13:19:42;;;;;;;4.43;2.80;;;16.70;97.90;;;;;;10072434;28;20182;-70
2023/04/19 13:24:33;;;;;;;4.10;3.00;;;16.60;97.90;;;;;;10078100;28;20660;-71
2023/04/19 13:29:24;;;;;;;6.82;3.45;;;16.40;98.00;;;;;;10047059;28;20370;-70
2023/04/19 13:34:15;;;;;;;5.20;3.58;;;16.20;98.10;;;;;;10046317;28;20504;-71
2023/04/19 13:39:06;;;;;;;5.78;4.05;;;16.10;98.20;;;;;;10057522;28;20022;-73
2023/04/19 13:43:57;;;;;;;6.85;3.42;;;15.90;98.50;;;;;;10053271;28;20029;-73
2023/04/19 13:48:47;;;;;;;6.45;4.30;;;15.80;98.60;;;;;;10063017;28;20111;-70
2023/04/19 13:53:39;;;;;;;8.60;3.95;;;15.80;98.60;;;;;;10065789;28;20449;-70
2023/04/19 13:58:30;;;;;;;6.50;4.07;;;15.80;98.80;;;;;;10067213;28;20623;-69
2023/04/19 14:03:22;;;;;;;6.13;4.18;;;15.50;99.20;;;;;;10070115;28;20025;-65
2023/04/19 14:08:13;;;;;;;6.65;4.47;;;15.30;99.70;;;;;;10062607;28;20030;-66
2023/04/19 14:13:04;;;;;;;7.82;4.45;;;15.10;99.90;;;;;;10065042;28;20049;-67
2023/04/19 14:17:55;;;;;;;5.47;3.90;;;14.90;99.90;;;;;;10073275;28;20029;-67
2023/04/19 14:22:46;;;;;;;7.60;4.38;;;15.00;99.90;;;;;;10062715;28;20039;-68
2023/04/19 14:27:43;;;;;;;5.70;4.00;;;15.00;99.90;;;;;;10069285;28;20025;-69
2023/04/19 14:32:34;;;;;;;9.45;4.75;;;15.00;99.90;;;;;;10048939;28;20041;-69
2023/04/19 14:37:25;;;;;;;6.53;4.00;;;14.90;99.90;;;;;;10070854;28;20032;-65
2023/04/19 14:42:25;;;;;;;7.40;4.22;;;15.00;99.90;;;;;;10070345;28;20029;-70
2023/04/19 14:47:16;;;;;;;7.93;4.25;;;15.00;99.90;;;;;;10065000;28;20061;-71
2023/04/19 14:52:07;;;;;;;6.75;4.28;;;15.20;99.90;;;;;;10071811;28;20505;-69
2023/04/19 14:56:58;;;;;;;8.45;5.43;;;15.30;99.90;;;;;;10064693;28;20041;-67
2023/04/19 15:01:49;;;;;;;8.85;5.45;;;15.20;99.90;;;;;;10077271;28;20044;-70
2023/04/19 15:06:40;;;;;;;7.18;4.45;;;15.10;99.90;;;;;;10065081;28;20052;-70
2023/04/19 15:11:30;;;;;;;5.97;4.10;;;15.10;99.90;;;;;;10063538;28;20092;-68
2023/04/19 15:16:21;;;;;;;8.38;4.43;;;15.20;99.90;;;;;;10070210;28;20048;-67
2023/04/19 15:21:12;;;;;;;6.78;3.90;;;15.40;99.90;;;;;;10079454;28;20127;-67
2023/04/19 15:26:03;;;;;;;8.30;4.15;;;15.30;99.90;;;;;;10077716;28;20032;-67
2023/04/19 15:30:59;;;;;;;6.45;4.70;;;15.30;99.90;;;;;;10076764;28;20104;-70
2023/04/19 15:35:51;;;;;;;7.35;4.00;;;15.40;99.90;;;;;;10075392;28;20049;-65
2023/04/19 15:40:42;;;;;;;7.43;4.30;;;15.50;99.90;;;;;;10056829;28;20033;-64
2023/04/19 15:45:33;;;;;;;6.68;4.75;;;15.40;99.90;;;;;;10061920;28;20521;-65
2023/04/19 15:50:23;;;;;;;8.38;4.60;;;15.40;99.90;;;;;;10056891;28;20033;-62
2023/04/19 15:55:14;;;;;;;7.05;3.88;;;15.10;99.90;;;;;;10056090;28;20037;-65
2023/04/19 16:00:08;;;;;;;6.78;3.75;;;14.90;99.90;;;;;;10058577;28;20431;-65
2023/04/19 16:04:58;;;;;;;10.55;4.70;;;14.80;99.90;;;;;;10057289;28;20521;-64
2023/04/19 16:09:49;;;;;;;5.70;3.20;;;14.60;99.90;;;;;;10057463;28;20045;-68
2023/04/19 16:14:40;;;;;;;6.63;2.70;;;14.50;99.90;;;;;;10043014;28;20041;-66
2023/04/19 16:19:30;;;;;;;4.78;2.63;;;14.40;99.90;;;;;;10071601;28;20395;-68
2023/04/19 16:24:21;;;;;;;6.20;3.20;;;14.40;99.90;;;;;;10066634;28;20207;-67
2023/04/19 16:29:12;;;;;;;4.43;2.58;;;14.30;99.90;;;;;;10053079;28;20052;-69
2023/04/19 16:34:03;;;;;;;3.58;2.50;;;14.30;99.90;;;;;;10056219;28;20045;-67
2023/04/19 16:38:53;;;;;;;11.30;2.60;;;14.40;99.90;;;;;;10057759;28;20038;-70
2023/04/19 16:43:44;;;;;;;3.85;2.72;;;14.30;99.90;;;;;;10057567;28;20052;-67
2023/04/19 16:48:35;;;;;;;6.20;2.78;;;14.40;99.90;;;;;;10056098;28;20056;-69
2023/04/19 16:53:25;;;;;;;4.85;2.78;;;14.30;99.90;;;;;;10057608;28;20483;-67
2023/04/19 16:58:16;;;;;;;6.68;3.60;;;14.30;99.90;;;;;;10054022;28;20045;-68
2023/04/19 17:03:08;;;;;;;4.78;3.13;;;14.40;99.90;;;;;;10054718;28;20167;-69
2023/04/19 17:07:58;;;;;;;9.25;5.07;;;14.50;99.90;;;;;;10042023;28;20045;-68
2023/04/19 17:12:49;;;;;;;7.57;4.97;;;14.50;99.90;;;;;;10061113;28;20435;-69
2023/04/19 17:17:41;;;;;;;8.30;5.28;;;14.60;99.90;;;;;;10044547;28;20017;-68
2023/04/19 17:22:32;;;;;;;8.23;3.95;;;14.60;99.90;;;;;;10049070;28;20048;-68
2023/04/19 17:27:22;;;;;;;8.20;4.38;;;14.60;99.90;;;;;;10042107;28;20036;-67
2023/04/19 17:32:13;;;;;;;7.57;3.80;;;14.50;99.90;;;;;;10063629;28;20593;-68
2023/04/19 17:37:04;;;;;;;5.75;3.28;;;14.40;99.90;;;;;;10054522;28;20499;-69
2023/04/19 17:41:55;;;;;;;5.93;3.95;;;14.20;99.90;;;;;;10058889;28;20072;-70
2023/04/19 17:46:45;;;;;;;6.18;4.03;;;14.20;99.90;;;;;;10051733;28;20331;-66
2023/04/19 17:51:36;;;;;;;5.85;3.55;;;14.00;99.90;;;;;;10051325;28;20291;-69
2023/04/19 17:56:30;;;;;;;6.38;3.38;;;14.00;99.90;;;;;;10081502;28;20487;-72
2023/04/19 18:01:21;;;;;;;7.88;3.88;;;13.80;99.90;;;;;;10040448;28;20525;-72
2023/04/19 18:06:15;;;;;;;6.35;4.22;;;13.70;99.90;;;;;;10056938;28;20132;-68
2023/04/19 18:11:05;;;;;;;4.38;3.33;;;13.60;99.90;;;;;;10037555;28;20519;-71
2023/04/19 18:15:56;;;;;;;9.18;3.40;;;13.60;99.90;;;;;;10057718;28;20107;-71
2023/04/19 18:20:50;;;;;;;6.40;3.10;;;13.60;99.90;;;;;;10039611;28;20033;-72
2023/04/19 18:25:40;;;;;;;6.40;3.65;;;13.50;99.90;;;;;;10050311;28;20030;-65
2023/04/19 18:30:31;;;;;;;5.22;3.42;;;13.50;99.90;;;;;;10069454;28;20089;-62
2023/04/19 18:35:21;;;;;;;4.22;2.42;;;13.30;99.90;;;;;;10060634;28;20044;-64
2023/04/19 18:40:12;;;;;;;4.22;2.60;;;13.30;99.90;;;;;;10062660;28;20033;-63
2023/04/19 18:45:03;;;;;;;4.57;2.00;;;13.20;99.90;;;;;;10068048;28;20041;-63
2023/04/19 18:49:54;;;;;;;4.60;2.10;;;13.10;99.90;;;;;;10059255;28;20017;-63
2023/04/19 18:54:45;;;;;;;4.18;2.47;;;13.10;99.90;;;;;;10066355;28;20046;-63
2023/04/19 18:59:36;;;;;;;4.20;2.42;;;13.10;99.90;;;;;;10034166;28;20441;-66
2023/04/19 19:04:26;;;;;;;3.25;2.05;;;13.10;99.90;;;;;;10070464;28;20108;-66
2023/04/19 19:09:17;;;;;;;6.65;3.00;;;13.20;99.90;;;;;;10055204;28;20224;-69
2023/04/19 19:14:08;;;;;;;6.25;2.28;;;13.20;99.90;;;;;;10055121;28;20489;-68
2023/04/19 19:18:59;;;;;;;5.13;3.53;;;13.20;99.90;;;;;;10052102;28;20037;-66
2023/04/19 19:23:49;;;;;;;3.30;2.30;;;13.20;99.90;;;;;;10066790;28;20037;-66
2023/04/19 19:28:40;;;;;;;5.15;2.55;;;13.20;99.90;;;;;;10066072;28;20200;-62
2023/04/19 19:33:31;;;;;;;4.00;2.17;;;13.10;99.80;;;;;;10081478;28;20478;-63
2023/04/19 19:38:21;;;;;;;6.03;2.88;;;13.10;99.70;;;;;;10068809;28;20458;-62
2023/04/19 19:43:12;;;;;;;3.30;2.10;;;13.10;99.50;;;;;;10062273;28;20034;-63
2023/04/19 19:48:03;;;;;;;4.03;2.08;;;12.90;99.50;;;;;;10052142;28;20037;-62
2023/04/19 19:52:54;;;;;;;5.35;2.50;;;12.70;99.40;;;;;;10062752;28;20041;-64
2023/04/19 19:57:45;;;;;;;4.88;2.17;;;12.60;99.30;;;;;;10064706;28;20029;-64
2023/04/19 20:02:40;;;;;;;4.72;2.28;;;12.50;99.40;;;;;;10052921;28;20037;-63
2023/04/19 20:07:31;;;;;;;4.03;2.07;;;12.40;99.30;;;;;;10051960;28;20055;-65
2023/04/19 20:12:21;;;;;;;3.60;2.05;;;12.30;99.30;;;;;;10054621;28;20041;-61
2023/04/19 20:17:12;;;;;;;4.80;1.90;;;12.20;99.40;;;;;;10057382;28;20037;-64
2023/04/19 20:22:03;;;;;;;5.88;2.05;;;12.10;99.40;;;;;;10058704;28;20410;-64
2023/04/19 20:26:54;;;;;;;5.05;2.00;;;12.10;99.40;;;;;;10048928;28;20248;-63
2023/04/19 20:31:44;;;;;;;3.58;2.40;;;12.00;99.40;;;;;;10050171;28;20091;-63
2023/04/19 20:36:35;;;;;;;5.18;2.00;;;11.90;99.40;;;;;;10062088;28;20112;-65
2023/04/19 20:41:26;;;;;;;1.80;1.40;;;11.80;99.40;;;;;;10051314;28;20028;-64
2023/04/19 20:46:17;;;;;;;6.00;1.88;;;11.80;99.30;;;;;;10055536;28;20491;-64
2023/04/19 20:51:07;;;;;;;4.22;2.47;;;11.90;99.30;;;;;;10050270;28;20511;-67
2023/04/19 20:55:59;;;;;;;5.50;2.22;;;11.80;99.20;;;;;;10063780;28;20099;-69
2023/04/19 21:00:49;;;;;;;3.75;2.15;;;11.90;99.00;;;;;;10057100;28;20815;-68
2023/04/19 21:05:40;;;;;;;4.38;1.90;;;11.80;98.80;;;;;;10074899;28;20045;-67
2023/04/19 21:10:31;;;;;;;4.25;1.63;;;11.80;98.80;;;;;;10065002;28;20154;-67
2023/04/19 21:15:21;;;;;;;3.55;1.88;;;11.70;98.60;;;;;;10054708;28;20076;-66
2023/04/19 21:20:13;;;;;;;2.90;1.42;;;11.70;98.50;;;;;;10039427;28;20032;-65
2023/04/19 21:25:08;;;;;;;2.22;1.48;;;11.70;98.30;;;;;;10038325;28;20120;-67
2023/04/19 21:30:02;;;;;;;3.60;1.80;;;11.60;98.30;;;;;;10045349;28;20037;-66
2023/04/19 21:34:54;;;;;;;3.33;1.90;;;11.50;98.20;;;;;;10055204;28;20045;-66
2023/04/19 21:39:44;;;;;;;2.78;1.60;;;11.50;98.10;;;;;;10066153;28;20106;-65
2023/04/19 21:44:35;;;;;;;1.67;1.30;;;11.50;98.00;;;;;;10046860;28;20080;-65
2023/04/19 21:49:26;;;;;;;2.88;1.60;;;11.50;97.90;;;;;;10063701;28;20033;-67
2023/04/19 21:54:18;;;;;;;2.13;1.20;;;11.40;97.80;;;;;;10072743;28;20048;-64
2023/04/19 21:59:08;;;;;;;2.38;1.30;;;11.20;97.70;;;;;;10068072;28;20014;-66
2023/04/19 22:04:00;;;;;;;2.08;1.50;;;11.20;97.60;;;;;;10059834;28;20044;-65
2023/04/19 22:08:51;;;;;;;1.98;1.58;;;11.00;97.60;;;;;;10066220;28;20061;-69
2023/04/19 22:13:42;;;;;;;1.88;1.30;;;10.90;97.60;;;;;;10056690;28;20041;-65
2023/04/19 22:18:34;;;;;;;2.13;1.85;;;10.90;97.50;;;;;;10060416;28;20025;-67
2023/04/19 22:23:25;;;;;;;3.28;1.40;;;10.80;97.50;;;;;;10050214;28;20052;-65
2023/04/19 22:28:16;;;;;;;4.38;1.55;;;10.70;97.50;;;;;;10055526;28;20029;-66
2023/04/19 22:33:06;;;;;;;3.45;1.75;;;10.60;97.40;;;;;;10072217;28;20036;-66
2023/04/19 22:37:57;;;;;;;2.50;1.50;;;10.50;97.40;;;;;;10079845;28;20029;-66
2023/04/19 22:42:50;;;;;;;2.08;1.67;;;10.40;97.40;;;;;;10063713;28;20029;-66
2023/04/19 22:47:40;;;;;;;1.67;1.58;;;10.40;97.30;;;;;;10062239;28;20032;-66
2023/04/19 22:52:33;;;;;;;2.63;1.33;;;10.40;97.30;;;;;;10066452;28;20037;-65
2023/04/19 22:57:24;;;;;;;4.30;1.70;;;10.40;97.30;;;;;;10030442;28;20065;-66
2023/04/19 23:02:15;;;;;;;5.43;1.80;;;10.30;97.30;;;;;;10062572;28;20042;-66
2023/04/19 23:07:06;;;;;;;4.38;1.77;;;10.20;97.30;;;;;;10075388;28;20053;-66
2023/04/19 23:11:59;;;;;;;2.10;1.67;;;10.10;97.20;;;;;;10058833;28;20037;-66
2023/04/19 23:16:53;;;;;;;4.85;1.52;;;10.00;97.30;;;;;;10057283;28;20029;-66
2023/04/19 23:21:44;;;;;;;2.80;1.58;;;9.90;97.20;;;;;;10058455;28;20033;-65
2023/04/19 23:26:34;;;;;;;2.47;1.60;;;9.80;97.20;;;;;;10034329;28;20584;-65
2023/04/19 23:31:25;;;;;;;2.60;1.65;;;9.70;97.20;;;;;;10056212;28;20116;-65
2023/04/19 23:36:16;;;;;;;4.10;1.60;;;9.70;97.20;;;;;;10080878;28;20041;-66
2023/04/19 23:41:10;;;;;;;3.38;1.70;;;9.60;97.20;;;;;;10066344;28;20299;-67
2023/04/19 23:46:00;;;;;;;3.17;2.13;;;9.60;97.20;;;;;;10053744;28;20542;-67
2023/04/19 23:50:51;;;;;;;4.78;1.35;;;9.50;97.20;;;;;;10059618;28;20133;-66
2023/04/19 23:55:42;;;;;;;2.75;1.50;;;9.40;97.20;;;;;;10051094;28;20534;-66
